Time;durP1;ratioP1;P1;durP2;ratioP2;P2;SDS_P1;SDS_P2;PMS_P1;PMS_P2;Temp;Humidity;BMP_temperature;BMP_pressure;BME280_temperature;BME280_humidity;BME280_pressure;Samples;Min_cycle;Max_cycle;Signal;HPM_P1;HPM_P2
2022/03/05 00:00:35;;;;;;;14.27;7.10;;;;;;;;;;5078443;27;20454;-73
2022/03/05 00:03:01;;;;;;;18.00;7.88;;;;;;;;;;5077389;27;20051;-73
2022/03/05 00:05:28;;;;;;;16.90;7.72;;;;;;;;;;5077983;27;21738;-73
2022/03/05 00:07:54;;;;;;;11.82;6.22;;;;;;;;;;5079522;27;20070;-72
2022/03/05 00:10:21;;;;;;;15.18;6.95;;;;;;;;;;5093175;27;20067;-72
2022/03/05 00:12:47;;;;;;;16.20;8.30;;;;;;;;;;5071573;27;20036;-73
2022/03/05 00:15:13;;;;;;;13.02;7.22;;;;;;;;;;5079509;27;20044;-72
2022/03/05 00:17:42;;;;;;;15.30;7.22;;;;;;;;;;5078402;27;20714;-72
2022/03/05 00:20:09;;;;;;;13.75;6.93;;;;;;;;;;5068914;27;20091;-72
2022/03/05 00:22:35;;;;;;;15.98;7.65;;;;;;;;;;5097675;27;20430;-73
2022/03/05 00:25:01;;;;;;;16.23;7.10;;;;;;;;;;5076060;27;22076;-73
2022/03/05 00:27:27;;;;;;;15.35;8.13;;;;;;;;;;5075678;27;20051;-73
2022/03/05 00:29:53;;;;;;;16.35;8.82;;;;;;;;;;5075036;28;20043;-73
2022/03/05 00:32:19;;;;;;;15.90;7.95;;;;;;;;;;5091882;27;20041;-73
2022/03/05 00:34:45;;;;;;;14.23;7.28;;;;;;;;;;5093435;27;20411;-73
2022/03/05 00:37:12;;;;;;;16.90;8.75;;;;;;;;;;5072448;28;20107;-73
2022/03/05 00:39:38;;;;;;;21.50;8.63;;;;;;;;;;5078728;27;20047;-72
2022/03/05 00:42:04;;;;;;;18.00;8.77;;;;;;;;;;5076981;28;20043;-72
2022/03/05 00:44:31;;;;;;;15.20;8.13;;;;;;;;;;5074082;28;20040;-73
2022/03/05 00:46:57;;;;;;;16.73;8.95;;;;;;;;;;5075686;27;20043;-73
2022/03/05 00:49:23;;;;;;;20.02;8.98;;;;;;;;;;5095049;27;20517;-72
2022/03/05 00:51:50;;;;;;;20.50;8.90;;;;;;;;;;5087000;27;20079;-73
2022/03/05 00:54:16;;;;;;;19.35;8.45;;;;;;;;;;5078880;27;20044;-72
2022/03/05 00:56:42;;;;;;;16.75;7.93;;;;;;;;;;5072010;28;20079;-72
2022/03/05 00:59:08;;;;;;;18.85;8.13;;;;;;;;;;5093605;27;20124;-73
2022/03/05 01:01:35;;;;;;;16.33;8.93;;;;;;;;;;5077691;28;20123;-73
2022/03/05 01:04:01;;;;;;;16.13;8.75;;;;;;;;;;5076262;27;20549;-72
2022/03/05 01:06:27;;;;;;;20.40;9.32;;;;;;;;;;5089245;27;20041;-73
2022/03/05 01:08:55;;;;;;;14.45;7.53;;;;;;;;;;5072872;27;20158;-73
2022/03/05 01:11:21;;;;;;;10.98;6.00;;;;;;;;;;5076196;27;20216;-72
2022/03/05 01:13:47;;;;;;;16.27;8.43;;;;;;;;;;5077343;27;20082;-72
2022/03/05 01:16:14;;;;;;;15.15;8.07;;;;;;;;;;5076282;27;20047;-73
2022/03/05 01:18:40;;;;;;;18.02;8.13;;;;;;;;;;5072509;27;20048;-72
2022/03/05 01:21:06;;;;;;;16.73;7.63;;;;;;;;;;5091878;27;20040;-73
2022/03/05 01:23:32;;;;;;;18.27;8.82;;;;;;;;;;5093675;27;20036;-73
2022/03/05 01:25:58;;;;;;;15.20;7.78;;;;;;;;;;5093695;27;20065;-72
2022/03/05 01:28:24;;;;;;;13.73;8.38;;;;;;;;;;5090744;27;20057;-73
2022/03/05 01:30:50;;;;;;;17.10;8.30;;;;;;;;;;5079314;27;20047;-73
2022/03/05 01:33:17;;;;;;;13.73;7.75;;;;;;;;;;5084559;27;20044;-72
2022/03/05 01:35:44;;;;;;;15.52;7.30;;;;;;;;;;5072558;27;20102;-72
2022/03/05 01:38:10;;;;;;;13.80;7.05;;;;;;;;;;5091421;27;20216;-73
2022/03/05 01:40:37;;;;;;;16.65;7.40;;;;;;;;;;5072703;27;20613;-73
2022/03/05 01:43:03;;;;;;;17.05;8.25;;;;;;;;;;5074202;27;20036;-72
2022/03/05 01:45:30;;;;;;;17.75;7.00;;;;;;;;;;5076652;27;20097;-72
2022/03/05 01:47:56;;;;;;;15.73;6.25;;;;;;;;;;5090640;27;20039;-73
2022/03/05 01:50:22;;;;;;;15.25;6.72;;;;;;;;;;5065797;28;20067;-73
2022/03/05 01:52:48;;;;;;;13.75;6.40;;;;;;;;;;5075870;28;20433;-72
2022/03/05 01:55:15;;;;;;;12.18;6.10;;;;;;;;;;5089976;27;20111;-72
2022/03/05 01:57:41;;;;;;;8.32;3.53;;;;;;;;;;5093395;27;20094;-73
2022/03/05 02:00:08;;;;;;;12.52;5.80;;;;;;;;;;5076343;28;20135;-72
2022/03/05 02:02:34;;;;;;;11.65;6.53;;;;;;;;;;5073642;28;20054;-73
2022/03/05 02:05:00;;;;;;;11.68;5.90;;;;;;;;;;5094186;27;20075;-72
2022/03/05 02:07:26;;;;;;;13.27;5.53;;;;;;;;;;5086444;27;20044;-73
2022/03/05 02:09:52;;;;;;;13.82;5.60;;;;;;;;;;5091261;27;20043;-72
2022/03/05 02:12:19;;;;;;;10.93;5.85;;;;;;;;;;5084641;27;20111;-72
2022/03/05 02:14:45;;;;;;;11.07;5.03;;;;;;;;;;5085025;27;20048;-72
2022/03/05 02:17:11;;;;;;;15.00;5.10;;;;;;;;;;5072165;28;20056;-72
2022/03/05 02:19:37;;;;;;;7.95;4.05;;;;;;;;;;5076403;27;20039;-72
2022/03/05 02:22:06;;;;;;;11.13;5.50;;;;;;;;;;5074738;27;20059;-72
2022/03/05 02:24:32;;;;;;;10.35;5.60;;;;;;;;;;5086721;27;20049;-73
2022/03/05 02:26:58;;;;;;;11.20;5.75;;;;;;;;;;5074229;27;20063;-72
2022/03/05 02:29:25;;;;;;;10.77;5.50;;;;;;;;;;5093992;27;20078;-73
2022/03/05 02:31:52;;;;;;;12.30;5.53;;;;;;;;;;5075492;27;20586;-73
2022/03/05 02:34:18;;;;;;;13.20;6.50;;;;;;;;;;5078095;27;20048;-73
2022/03/05 02:36:44;;;;;;;9.13;5.45;;;;;;;;;;5071223;27;20052;-73
2022/03/05 02:39:11;;;;;;;11.05;6.05;;;;;;;;;;5092915;27;20079;-73
2022/03/05 02:41:37;;;;;;;11.23;5.80;;;;;;;;;;5080219;27;20052;-72
2022/03/05 02:44:05;;;;;;;18.88;6.18;;;;;;;;;;5084626;27;20090;-73
2022/03/05 02:46:34;;;;;;;11.63;6.18;;;;;;;;;;5074970;27;20045;-72
2022/03/05 02:49:00;;;;;;;11.75;4.57;;;;;;;;;;5083205;27;20036;-72
2022/03/05 02:51:26;;;;;;;14.75;5.60;;;;;;;;;;5074260;27;20093;-72
2022/03/05 02:53:52;;;;;;;13.93;5.80;;;;;;;;;;5073918;27;20098;-72
2022/03/05 02:56:18;;;;;;;9.95;5.28;;;;;;;;;;5074562;27;20094;-73
2022/03/05 02:58:44;;;;;;;11.85;6.25;;;;;;;;;;5074065;27;20040;-73
2022/03/05 03:01:11;;;;;;;14.48;7.90;;;;;;;;;;5080372;27;20051;-72
2022/03/05 03:03:37;;;;;;;12.88;5.78;;;;;;;;;;5077524;27;20086;-73
2022/03/05 03:06:03;;;;;;;11.55;6.60;;;;;;;;;;5096303;27;20090;-76
2022/03/05 03:08:29;;;;;;;10.10;4.80;;;;;;;;;;5095514;27;20118;-75
2022/03/05 03:10:55;;;;;;;11.57;4.90;;;;;;;;;;5076716;28;20037;-75
2022/03/05 03:13:21;;;;;;;11.30;5.65;;;;;;;;;;5077032;28;20518;-76
2022/03/05 03:15:47;;;;;;;12.90;7.05;;;;;;;;;;5078597;28;20915;-76
2022/03/05 03:18:16;;;;;;;12.70;6.18;;;;;;;;;;5095671;27;20044;-76
2022/03/05 03:20:42;;;;;;;13.00;6.15;;;;;;;;;;5079445;28;20929;-75
2022/03/05 03:23:08;;;;;;;12.32;5.95;;;;;;;;;;5081542;27;20040;-76
2022/03/05 03:25:34;;;;;;;13.05;6.00;;;;;;;;;;5094036;27;20960;-76
2022/03/05 03:28:01;;;;;;;11.82;5.72;;;;;;;;;;5076204;28;20075;-76
2022/03/05 03:30:27;;;;;;;11.02;6.47;;;;;;;;;;5078001;27;20063;-76
2022/03/05 03:32:53;;;;;;;9.88;5.25;;;;;;;;;;5087431;27;20126;-76
2022/03/05 03:35:19;;;;;;;13.15;6.63;;;;;;;;;;5073333;28;20123;-76
2022/03/05 03:37:45;;;;;;;11.82;5.80;;;;;;;;;;5092471;27;20508;-76
2022/03/05 03:40:13;;;;;;;10.65;4.97;;;;;;;;;;5077634;27;20143;-76
2022/03/05 03:42:39;;;;;;;6.70;4.22;;;;;;;;;;5099365;27;20032;-76
2022/03/05 03:45:06;;;;;;;10.68;4.85;;;;;;;;;;5089016;27;20383;-76
2022/03/05 03:47:32;;;;;;;13.40;6.45;;;;;;;;;;5069027;27;20412;-75
2022/03/05 03:49:58;;;;;;;12.95;6.28;;;;;;;;;;5078989;27;20032;-75
2022/03/05 03:52:25;;;;;;;13.68;6.95;;;;;;;;;;5074003;27;20737;-75
2022/03/05 03:54:51;;;;;;;11.60;5.80;;;;;;;;;;5075605;27;20675;-75
2022/03/05 03:57:17;;;;;;;10.25;5.32;;;;;;;;;;5070774;27;20042;-76
2022/03/05 03:59:46;;;;;;;11.85;6.10;;;;;;;;;;5094463;27;20047;-75
2022/03/05 04:02:12;;;;;;;13.77;6.40;;;;;;;;;;5076873;28;20091;-75
2022/03/05 04:04:38;;;;;;;12.90;6.68;;;;;;;;;;5060742;28;20150;-75
2022/03/05 04:09:49;;;;;;;11.63;6.22;;;;;;;;;;5071009;28;20064;-76
2022/03/05 04:12:15;;;;;;;11.68;6.13;;;;;;;;;;5073091;28;20076;-75
2022/03/05 04:14:41;;;;;;;14.27;6.80;;;;;;;;;;5073753;28;20049;-75
2022/03/05 04:17:07;;;;;;;14.35;6.85;;;;;;;;;;5068117;28;20128;-76
2022/03/05 04:19:34;;;;;;;14.82;7.13;;;;;;;;;;5069441;28;20088;-75
2022/03/05 04:22:00;;;;;;;14.68;6.93;;;;;;;;;;5073343;28;20040;-75
2022/03/05 04:24:26;;;;;;;13.35;5.85;;;;;;;;;;5071447;28;20536;-76
2022/03/05 04:26:52;;;;;;;11.32;5.68;;;;;;;;;;5077099;28;20127;-76
2022/03/05 04:29:18;;;;;;;12.60;6.57;;;;;;;;;;5070690;28;20044;-76
2022/03/05 04:31:44;;;;;;;11.45;5.85;;;;;;;;;;5070301;28;20561;-76
2022/03/05 04:34:10;;;;;;;11.30;5.82;;;;;;;;;;5072182;28;20044;-76
2022/03/05 04:36:37;;;;;;;15.13;6.75;;;;;;;;;;5072502;28;20059;-76
2022/03/05 04:39:03;;;;;;;9.73;5.60;;;;;;;;;;5075273;28;20133;-76
2022/03/05 04:41:29;;;;;;;13.25;6.32;;;;;;;;;;5071114;28;20041;-76
2022/03/05 04:43:55;;;;;;;12.77;6.05;;;;;;;;;;5070706;28;20045;-76
2022/03/05 04:46:21;;;;;;;12.38;5.85;;;;;;;;;;5075564;28;20037;-76
2022/03/05 04:48:47;;;;;;;13.23;6.85;;;;;;;;;;5072251;28;20041;-76
2022/03/05 04:51:13;;;;;;;10.73;5.13;;;;;;;;;;5063083;28;20075;-76
2022/03/05 04:53:39;;;;;;;12.93;5.70;;;;;;;;;;5071692;28;20110;-76
2022/03/05 04:56:05;;;;;;;12.18;6.45;;;;;;;;;;5074831;28;20527;-76
2022/03/05 04:58:31;;;;;;;10.88;6.43;;;;;;;;;;5070667;28;20093;-76
2022/03/05 05:00:57;;;;;;;14.55;6.20;;;;;;;;;;5067022;28;20037;-76
2022/03/05 05:03:24;;;;;;;9.77;4.85;;;;;;;;;;5073634;28;20054;-76
2022/03/05 05:05:50;;;;;;;13.38;6.30;;;;;;;;;;5073141;28;20040;-77
2022/03/05 05:08:16;;;;;;;11.45;6.03;;;;;;;;;;5073648;28;20037;-76
2022/03/05 05:10:42;;;;;;;15.32;5.72;;;;;;;;;;5072103;28;20593;-76
2022/03/05 05:13:08;;;;;;;10.52;5.53;;;;;;;;;;5070938;28;20049;-76
2022/03/05 05:15:35;;;;;;;14.10;6.68;;;;;;;;;;5073207;28;20569;-76
2022/03/05 05:18:01;;;;;;;10.52;5.07;;;;;;;;;;5070790;28;20044;-77
2022/03/05 05:20:29;;;;;;;12.40;6.13;;;;;;;;;;5073132;28;20646;-76
2022/03/05 05:22:55;;;;;;;13.65;6.20;;;;;;;;;;5075110;28;20090;-76
2022/03/05 05:25:21;;;;;;;13.73;6.82;;;;;;;;;;5071592;28;20049;-76
2022/03/05 05:27:48;;;;;;;46.90;8.02;;;;;;;;;;5070584;28;20036;-76
2022/03/05 05:30:14;;;;;;;12.30;6.28;;;;;;;;;;5068787;28;20106;-77
2022/03/05 05:32:40;;;;;;;11.77;5.32;;;;;;;;;;5074908;28;20596;-76
2022/03/05 05:35:09;;;;;;;11.77;6.00;;;;;;;;;;5073063;28;20048;-76
2022/03/05 05:37:35;;;;;;;12.00;6.32;;;;;;;;;;5073377;28;20537;-75
2022/03/05 05:40:02;;;;;;;11.48;5.80;;;;;;;;;;5072215;28;20859;-76
2022/03/05 05:42:28;;;;;;;8.75;4.72;;;;;;;;;;5080659;28;20048;-76
2022/03/05 05:44:54;;;;;;;8.65;4.97;;;;;;;;;;5070521;28;20086;-76
2022/03/05 05:47:22;;;;;;;13.02;5.97;;;;;;;;;;5074262;28;20857;-76
2022/03/05 05:49:49;;;;;;;7.45;4.18;;;;;;;;;;5073267;28;20135;-76
2022/03/05 05:52:15;;;;;;;11.20;4.80;;;;;;;;;;5070073;28;20051;-76
2022/03/05 05:54:42;;;;;;;8.68;4.20;;;;;;;;;;5071801;28;20198;-76
2022/03/05 05:57:08;;;;;;;9.55;5.10;;;;;;;;;;5066664;28;20052;-76
2022/03/05 05:59:35;;;;;;;8.93;4.75;;;;;;;;;;5068264;28;20045;-77
2022/03/05 06:02:01;;;;;;;11.98;5.85;;;;;;;;;;5071867;28;20084;-76
2022/03/05 06:04:27;;;;;;;9.23;4.05;;;;;;;;;;5067791;28;20569;-76
2022/03/05 06:06:53;;;;;;;8.38;4.65;;;;;;;;;;5070142;28;20102;-76
2022/03/05 06:09:19;;;;;;;10.80;4.60;;;;;;;;;;5074538;28;20032;-76
2022/03/05 06:11:46;;;;;;;11.50;5.65;;;;;;;;;;5074891;28;20514;-76
2022/03/05 06:14:12;;;;;;;7.63;4.25;;;;;;;;;;5075654;28;20478;-76
2022/03/05 06:16:39;;;;;;;46.72;16.13;;;;;;;;;;5082513;28;20044;-76
2022/03/05 06:19:05;;;;;;;50.38;17.60;;;;;;;;;;5080132;28;20041;-77
2022/03/05 06:21:31;;;;;;;36.65;15.15;;;;;;;;;;5075843;28;20485;-77
2022/03/05 06:23:57;;;;;;;43.63;16.30;;;;;;;;;;5077732;28;20629;-76
2022/03/05 06:26:23;;;;;;;48.33;18.60;;;;;;;;;;5081716;28;20051;-77
2022/03/05 06:28:49;;;;;;;14.18;8.25;;;;;;;;;;5083709;28;20567;-77
2022/03/05 06:31:15;;;;;;;15.93;8.32;;;;;;;;;;5066884;28;20355;-77
2022/03/05 06:33:43;;;;;;;14.63;7.60;;;;;;;;;;5079772;28;20052;-77
2022/03/05 06:36:09;;;;;;;9.82;5.47;;;;;;;;;;5076348;28;20037;-77
2022/03/05 06:38:35;;;;;;;10.48;5.25;;;;;;;;;;5079172;28;20285;-76
2022/03/05 06:41:01;;;;;;;8.77;4.43;;;;;;;;;;5079839;28;20152;-76
2022/03/05 06:43:27;;;;;;;11.07;5.65;;;;;;;;;;5076464;28;20100;-76
2022/03/05 06:45:54;;;;;;;8.55;4.50;;;;;;;;;;5083151;28;20143;-76
2022/03/05 06:48:20;;;;;;;10.50;4.93;;;;;;;;;;5077014;28;20049;-76
2022/03/05 06:50:46;;;;;;;9.80;5.28;;;;;;;;;;5081744;28;20048;-76
2022/03/05 06:53:12;;;;;;;11.55;5.78;;;;;;;;;;5071996;28;20068;-76
2022/03/05 06:55:38;;;;;;;15.15;5.85;;;;;;;;;;5079268;28;20064;-76
2022/03/05 06:58:04;;;;;;;11.85;5.10;;;;;;;;;;5080403;28;20063;-76
2022/03/05 07:00:31;;;;;;;16.67;6.57;;;;;;;;;;5067480;28;20098;-76
2022/03/05 07:02:57;;;;;;;11.15;6.13;;;;;;;;;;5077561;28;20052;-76
2022/03/05 07:05:23;;;;;;;9.30;4.45;;;;;;;;;;5076026;28;20349;-76
2022/03/05 07:07:49;;;;;;;8.80;4.47;;;;;;;;;;5073381;28;20045;-76
2022/03/05 07:10:15;;;;;;;7.82;4.05;;;;;;;;;;5077963;28;20044;-77
2022/03/05 07:12:41;;;;;;;9.68;3.70;;;;;;;;;;5077508;28;20047;-76
2022/03/05 07:15:07;;;;;;;10.48;4.80;;;;;;;;;;5076343;28;20068;-76
2022/03/05 07:17:34;;;;;;;6.18;4.13;;;;;;;;;;5079004;28;20045;-76
2022/03/05 07:20:00;;;;;;;9.07;3.60;;;;;;;;;;5074071;28;20122;-76
2022/03/05 07:22:26;;;;;;;9.80;4.10;;;;;;;;;;5076799;28;20044;-76
2022/03/05 07:24:52;;;;;;;5.85;3.25;;;;;;;;;;5075363;28;20033;-76
2022/03/05 07:27:18;;;;;;;7.75;3.72;;;;;;;;;;5074154;28;20044;-77
2022/03/05 07:29:46;;;;;;;6.95;3.25;;;;;;;;;;5070105;28;20087;-78
2022/03/05 07:32:25;;;;;;;7.28;3.70;;;;;;;;;;5082276;28;20032;-79
2022/03/05 07:34:51;;;;;;;10.13;4.07;;;;;;;;;;5074103;28;20187;-77
2022/03/05 07:37:17;;;;;;;10.70;4.60;;;;;;;;;;5072518;28;20045;-76
2022/03/05 07:39:43;;;;;;;8.85;5.68;;;;;;;;;;5070979;28;20121;-76
2022/03/05 07:42:09;;;;;;;8.27;3.45;;;;;;;;;;5072286;28;20074;-76
2022/03/05 07:44:36;;;;;;;8.38;3.63;;;;;;;;;;5072416;28;20051;-76
2022/03/05 07:47:02;;;;;;;10.40;5.28;;;;;;;;;;5071886;28;20044;-76
2022/03/05 07:49:28;;;;;;;7.35;2.97;;;;;;;;;;5070092;28;20068;-76
2022/03/05 07:51:56;;;;;;;8.93;4.45;;;;;;;;;;5060297;28;20029;-77
2022/03/05 07:54:22;;;;;;;8.48;3.83;;;;;;;;;;5068872;28;20040;-77
2022/03/05 07:56:48;;;;;;;8.98;4.53;;;;;;;;;;5069379;28;20222;-77
2022/03/05 07:59:14;;;;;;;6.53;3.63;;;;;;;;;;5067512;28;20077;-76
2022/03/05 08:01:43;;;;;;;6.75;3.58;;;;;;;;;;5071832;28;20455;-76
2022/03/05 08:04:09;;;;;;;8.80;4.00;;;;;;;;;;5074566;28;20036;-77
2022/03/05 08:06:37;;;;;;;9.00;3.25;;;;;;;;;;5096247;27;20044;-76
2022/03/05 08:09:03;;;;;;;8.40;3.38;;;;;;;;;;5074895;28;20051;-77
2022/03/05 08:11:31;;;;;;;12.38;3.60;;;;;;;;;;5074984;28;20043;-76
2022/03/05 08:13:57;;;;;;;5.80;3.33;;;;;;;;;;5091533;27;20040;-76
2022/03/05 08:16:23;;;;;;;9.25;3.53;;;;;;;;;;5075061;28;20145;-76
2022/03/05 08:18:50;;;;;;;7.13;4.38;;;;;;;;;;5073821;28;20130;-76
2022/03/05 08:21:16;;;;;;;8.55;3.78;;;;;;;;;;5072285;28;20052;-76
2022/03/05 08:23:44;;;;;;;8.35;3.45;;;;;;;;;;5073750;27;20041;-76
2022/03/05 08:26:13;;;;;;;11.95;4.25;;;;;;;;;;5069835;28;20052;-76
2022/03/05 08:28:40;;;;;;;7.70;3.38;;;;;;;;;;5074554;28;20051;-76
2022/03/05 08:31:06;;;;;;;7.32;3.38;;;;;;;;;;5068175;28;20048;-77
2022/03/05 08:33:33;;;;;;;7.30;3.92;;;;;;;;;;5071877;28;20045;-76
2022/03/05 08:36:18;;;;;;;8.82;3.95;;;;;;;;;;5072713;28;20438;-82
2022/03/05 08:38:44;;;;;;;13.82;5.10;;;;;;;;;;5077616;28;20054;-76
2022/03/05 08:41:10;;;;;;;20.10;6.05;;;;;;;;;;5088564;27;20041;-76
2022/03/05 08:43:36;;;;;;;16.58;6.05;;;;;;;;;;5074352;28;20121;-74
2022/03/05 08:46:04;;;;;;;16.58;6.18;;;;;;;;;;5072964;28;20126;-74
2022/03/05 08:48:30;;;;;;;13.30;5.68;;;;;;;;;;5091172;27;20497;-74
2022/03/05 08:50:56;;;;;;;12.18;4.22;;;;;;;;;;5086381;27;20950;-74
2022/03/05 08:53:22;;;;;;;9.48;5.20;;;;;;;;;;5072780;28;20415;-74
2022/03/05 08:55:48;;;;;;;11.38;4.90;;;;;;;;;;5071721;28;20054;-74
2022/03/05 08:58:14;;;;;;;14.02;5.30;;;;;;;;;;5086980;27;20574;-74
2022/03/05 09:00:41;;;;;;;16.48;5.90;;;;;;;;;;5075456;28;20044;-74
2022/03/05 09:03:07;;;;;;;15.43;5.05;;;;;;;;;;5073652;28;20040;-74
2022/03/05 09:05:33;;;;;;;11.70;5.05;;;;;;;;;;5090793;27;20040;-75
2022/03/05 09:07:59;;;;;;;14.95;5.32;;;;;;;;;;5074122;28;20048;-73
2022/03/05 09:10:25;;;;;;;11.23;5.50;;;;;;;;;;5072219;28;20114;-73
2022/03/05 09:12:51;;;;;;;12.02;5.07;;;;;;;;;;5077648;27;20031;-78
2022/03/05 09:15:17;;;;;;;10.20;4.00;;;;;;;;;;5088269;27;20048;-78
2022/03/05 09:17:43;;;;;;;12.75;5.43;;;;;;;;;;5085462;27;20501;-78
2022/03/05 09:20:10;;;;;;;9.38;5.28;;;;;;;;;;5074510;27;20043;-78
2022/03/05 09:22:36;;;;;;;13.27;5.32;;;;;;;;;;5076332;27;20036;-78
2022/03/05 09:25:03;;;;;;;14.98;6.18;;;;;;;;;;5076251;27;20039;-78
2022/03/05 09:27:29;;;;;;;8.70;5.22;;;;;;;;;;5094469;27;20749;-72
2022/03/05 09:29:55;;;;;;;14.70;6.95;;;;;;;;;;5072300;27;20047;-74
2022/03/05 09:32:21;;;;;;;12.57;6.65;;;;;;;;;;5089869;27;20677;-73
2022/03/05 09:34:47;;;;;;;15.73;5.82;;;;;;;;;;5088728;27;20047;-73
2022/03/05 09:37:13;;;;;;;15.55;6.38;;;;;;;;;;5089065;27;20044;-73
2022/03/05 09:39:40;;;;;;;15.88;6.18;;;;;;;;;;5072792;27;20051;-73
2022/03/05 09:42:06;;;;;;;15.38;6.07;;;;;;;;;;5089359;27;20099;-73
2022/03/05 09:44:32;;;;;;;12.57;5.72;;;;;;;;;;5073469;27;20553;-73
2022/03/05 09:47:00;;;;;;;14.52;6.28;;;;;;;;;;5074094;27;20056;-73
2022/03/05 09:49:27;;;;;;;17.23;5.68;;;;;;;;;;5093348;27;20036;-73
2022/03/05 09:51:53;;;;;;;13.45;5.90;;;;;;;;;;5071571;27;20077;-73
2022/03/05 09:54:20;;;;;;;11.95;6.43;;;;;;;;;;5069584;27;20051;-73
2022/03/05 09:56:46;;;;;;;12.75;6.35;;;;;;;;;;5062977;28;20623;-73
2022/03/05 09:59:12;;;;;;;17.95;6.82;;;;;;;;;;5087907;27;20040;-73
2022/03/05 10:01:39;;;;;;;14.10;5.57;;;;;;;;;;5069584;27;20036;-73
2022/03/05 10:04:05;;;;;;;13.45;6.00;;;;;;;;;;5072088;28;20036;-73
2022/03/05 10:06:31;;;;;;;17.23;6.32;;;;;;;;;;5070495;28;20074;-73
2022/03/05 10:08:58;;;;;;;17.52;6.55;;;;;;;;;;5076680;27;20036;-73
2022/03/05 10:11:25;;;;;;;15.15;6.10;;;;;;;;;;5072723;28;20051;-74
2022/03/05 10:13:51;;;;;;;17.50;7.43;;;;;;;;;;5075081;28;20037;-74
2022/03/05 10:16:33;;;;;;;16.67;7.55;;;;;;;;;;5068688;28;20145;-74
2022/03/05 10:19:15;;;;;;;16.67;6.53;;;;;;;;;;5067638;27;20040;-74
2022/03/05 10:21:54;;;;;;;15.90;8.15;;;;;;;;;;5082585;27;20311;-74
2022/03/05 10:24:29;;;;;;;16.08;7.15;;;;;;;;;;5071657;28;20055;-74
2022/03/05 10:26:56;;;;;;;22.08;9.93;;;;;;;;;;5072654;28;20048;-74
2022/03/05 10:29:23;;;;;;;21.98;8.55;;;;;;;;;;5074758;28;20817;-74
2022/03/05 10:32:03;;;;;;;17.70;7.22;;;;;;;;;;5077984;27;20044;-79
2022/03/05 10:34:42;;;;;;;20.75;8.65;;;;;;;;;;5075479;28;20082;-81
2022/03/05 10:37:08;;;;;;;19.92;7.88;;;;;;;;;;5079184;27;20127;-76
2022/03/05 10:39:35;;;;;;;22.20;7.85;;;;;;;;;;5087833;27;20045;-76
2022/03/05 10:42:01;;;;;;;21.02;8.20;;;;;;;;;;5093653;27;20045;-76
2022/03/05 10:44:27;;;;;;;16.60;6.85;;;;;;;;;;5088618;27;20044;-76
2022/03/05 10:47:01;;;;;;;15.15;7.15;;;;;;;;;;5092244;27;20273;-75
2022/03/05 10:49:37;;;;;;;16.70;7.70;;;;;;;;;;5072419;27;20040;-75
2022/03/05 10:52:07;;;;;;;18.35;7.93;;;;;;;;;;5070232;27;20047;-75
2022/03/05 10:54:42;;;;;;;23.02;9.90;;;;;;;;;;5070623;28;20052;-75
2022/03/05 10:57:13;;;;;;;18.10;8.73;;;;;;;;;;5073662;27;20040;-76
2022/03/05 10:59:49;;;;;;;21.67;9.37;;;;;;;;;;5092993;27;20036;-76
2022/03/05 11:02:16;;;;;;;20.73;8.35;;;;;;;;;;5072316;28;20405;-75
2022/03/05 11:04:42;;;;;;;19.30;7.45;;;;;;;;;;5074125;27;20043;-76
2022/03/05 11:07:09;;;;;;;19.00;10.07;;;;;;;;;;5074655;28;20493;-76
2022/03/05 11:09:36;;;;;;;19.17;8.57;;;;;;;;;;5074622;28;20048;-80
2022/03/05 11:12:02;;;;;;;20.48;9.45;;;;;;;;;;5077211;28;20056;-80
2022/03/05 11:14:28;;;;;;;16.30;8.88;;;;;;;;;;5074819;28;20043;-80
2022/03/05 11:16:55;;;;;;;22.17;10.10;;;;;;;;;;5093388;28;20044;-81
2022/03/05 11:19:22;;;;;;;17.98;9.00;;;;;;;;;;5073200;27;20082;-78
2022/03/05 11:21:49;;;;;;;19.63;8.95;;;;;;;;;;5097364;27;20040;-79
2022/03/05 11:24:16;;;;;;;20.02;8.80;;;;;;;;;;5096707;27;20154;-78
2022/03/05 11:26:42;;;;;;;20.60;9.32;;;;;;;;;;5077512;27;20043;-77
2022/03/05 11:29:08;;;;;;;18.52;8.95;;;;;;;;;;5077088;27;20131;-78
2022/03/05 11:31:35;;;;;;;23.98;9.65;;;;;;;;;;5071710;27;20040;-78
2022/03/05 11:34:12;;;;;;;17.95;8.45;;;;;;;;;;5079642;28;20181;-77
2022/03/05 11:36:39;;;;;;;22.10;8.93;;;;;;;;;;5075880;28;20047;-77
2022/03/05 11:39:25;;;;;;;19.70;9.20;;;;;;;;;;5075073;27;20116;-78
2022/03/05 11:41:52;;;;;;;21.08;9.10;;;;;;;;;;5060091;28;20051;-77
2022/03/05 11:44:18;;;;;;;21.95;9.13;;;;;;;;;;5072586;28;20123;-78
2022/03/05 11:46:45;;;;;;;23.23;8.80;;;;;;;;;;5076329;28;21158;-78
2022/03/05 11:49:12;;;;;;;21.08;9.00;;;;;;;;;;5079021;28;20058;-78
2022/03/05 11:51:55;;;;;;;24.63;9.65;;;;;;;;;;5078521;28;20072;-78
2022/03/05 11:54:22;;;;;;;16.85;8.82;;;;;;;;;;5092888;27;20099;-78
2022/03/05 11:57:03;;;;;;;20.38;9.38;;;;;;;;;;5092337;27;20045;-78
2022/03/05 11:59:34;;;;;;;22.17;8.45;;;;;;;;;;5094250;27;20045;-78
2022/03/05 12:02:00;;;;;;;19.42;8.13;;;;;;;;;;5078916;27;20575;-78
2022/03/05 12:04:30;;;;;;;12.88;7.88;;;;;;;;;;5078166;27;20040;-78
2022/03/05 12:06:58;;;;;;;22.13;8.75;;;;;;;;;;5093749;27;20039;-78
2022/03/05 12:09:32;;;;;;;18.83;8.65;;;;;;;;;;5083086;27;20126;-78
2022/03/05 12:11:59;;;;;;;19.55;10.02;;;;;;;;;;5078649;27;20084;-78
2022/03/05 12:14:45;;;;;;;21.98;8.63;;;;;;;;;;5067008;28;20044;-78
2022/03/05 12:17:11;;;;;;;17.83;9.30;;;;;;;;;;5074663;28;20044;-78
2022/03/05 12:19:45;;;;;;;21.17;9.13;;;;;;;;;;5097505;27;20512;-78
2022/03/05 12:22:15;;;;;;;20.40;9.05;;;;;;;;;;5072715;28;20086;-77
2022/03/05 12:24:41;;;;;;;23.77;10.23;;;;;;;;;;5077813;27;20058;-78
2022/03/05 12:27:12;;;;;;;18.55;9.63;;;;;;;;;;5092091;27;20568;-78
2022/03/05 12:29:46;;;;;;;18.93;9.23;;;;;;;;;;5078656;27;20075;-78
2022/03/05 12:32:14;;;;;;;27.25;10.30;;;;;;;;;;5081286;27;20758;-78
2022/03/05 12:34:43;;;;;;;27.60;12.00;;;;;;;;;;5076672;27;20415;-78
2022/03/05 12:37:10;;;;;;;21.83;10.57;;;;;;;;;;5081183;27;20055;-78
2022/03/05 12:39:45;;;;;;;20.50;9.88;;;;;;;;;;5072988;27;20604;-77
2022/03/05 12:42:12;;;;;;;19.88;10.48;;;;;;;;;;5070936;27;20582;-78
2022/03/05 12:44:39;;;;;;;19.95;9.80;;;;;;;;;;5076716;28;20051;-78
2022/03/05 12:47:06;;;;;;;18.70;10.30;;;;;;;;;;5078366;27;20052;-78
2022/03/05 12:49:32;;;;;;;24.40;10.82;;;;;;;;;;5095761;27;20572;-78
2022/03/05 12:51:58;;;;;;;19.73;9.65;;;;;;;;;;5070131;27;20036;-78
2022/03/05 12:54:24;;;;;;;22.50;11.57;;;;;;;;;;5070765;27;20037;-77
2022/03/05 12:56:59;;;;;;;22.48;11.05;;;;;;;;;;5073380;27;20166;-75
2022/03/05 12:59:25;;;;;;;26.33;11.80;;;;;;;;;;5076365;27;20066;-80
2022/03/05 13:02:03;;;;;;;23.63;10.63;;;;;;;;;;5071821;27;20047;-76
2022/03/05 13:04:36;;;;;;;25.83;12.43;;;;;;;;;;5076945;27;20077;-83
2022/03/05 13:07:03;;;;;;;23.67;12.73;;;;;;;;;;5093517;27;20036;-77
2022/03/05 13:09:30;;;;;;;23.75;10.10;;;;;;;;;;5077133;28;20062;-79
2022/03/05 13:11:57;;;;;;;29.83;11.73;;;;;;;;;;5072164;28;20048;-77
2022/03/05 13:14:23;;;;;;;22.65;13.05;;;;;;;;;;5090691;27;20040;-79
2022/03/05 13:16:52;;;;;;;23.25;10.77;;;;;;;;;;5077242;27;20040;-79
2022/03/05 13:19:18;;;;;;;25.02;13.18;;;;;;;;;;5069116;27;20094;-77
2022/03/05 13:21:46;;;;;;;25.88;12.65;;;;;;;;;;5072239;27;20043;-76
2022/03/05 13:24:14;;;;;;;23.52;12.00;;;;;;;;;;5075805;27;20044;-77
2022/03/05 13:26:41;;;;;;;24.42;13.23;;;;;;;;;;5096701;27;20086;-77
2022/03/05 13:29:08;;;;;;;20.02;11.10;;;;;;;;;;5075083;27;20167;-77
2022/03/05 13:31:34;;;;;;;23.80;12.10;;;;;;;;;;5089977;27;20040;-77
2022/03/05 13:34:00;;;;;;;17.50;9.85;;;;;;;;;;5070857;27;20175;-77
2022/03/05 13:36:40;;;;;;;20.23;10.02;;;;;;;;;;5074915;27;20055;-77
2022/03/05 13:39:10;;;;;;;21.40;10.57;;;;;;;;;;5091070;27;20047;-77
2022/03/05 13:41:39;;;;;;;19.80;9.88;;;;;;;;;;5070373;27;20047;-76
2022/03/05 13:44:06;;;;;;;75.10;26.58;;;;;;;;;;5073097;28;20032;-78
2022/03/05 13:46:32;;;;;;;48.00;19.67;;;;;;;;;;5070233;28;20051;-77
2022/03/05 13:48:59;;;;;;;24.92;10.45;;;;;;;;;;5076878;27;20544;-76
2022/03/05 13:51:28;;;;;;;60.50;19.60;;;;;;;;;;5087663;27;20535;-77
2022/03/05 13:53:56;;;;;;;145.95;51.70;;;;;;;;;;5077303;28;20044;-77
2022/03/05 13:56:23;;;;;;;37.10;16.73;;;;;;;;;;5094862;27;20043;-76
2022/03/05 13:58:52;;;;;;;33.65;13.88;;;;;;;;;;5087231;27;20097;-76
2022/03/05 14:01:33;;;;;;;28.63;13.38;;;;;;;;;;5075493;28;20041;-76
2022/03/05 14:04:08;;;;;;;14.30;7.53;;;;;;;;;;5073195;28;20097;-76
2022/03/05 14:06:53;;;;;;;17.92;9.65;;;;;;;;;;5079175;28;20139;-76
2022/03/05 14:09:22;;;;;;;17.15;9.65;;;;;;;;;;5075641;27;20063;-78
2022/03/05 14:12:01;;;;;;;16.30;8.32;;;;;;;;;;5086259;27;20090;-77
2022/03/05 14:14:34;;;;;;;13.73;7.70;;;;;;;;;;5092036;27;20043;-77
2022/03/05 14:17:01;;;;;;;17.88;9.38;;;;;;;;;;5090826;27;20044;-81
2022/03/05 14:19:28;;;;;;;15.85;8.05;;;;;;;;;;5068481;28;20045;-77
2022/03/05 14:22:12;;;;;;;15.30;7.40;;;;;;;;;;5068167;28;20537;-76
2022/03/05 14:24:40;;;;;;;17.15;7.18;;;;;;;;;;5091280;27;20044;-78
2022/03/05 14:27:24;;;;;;;10.85;5.95;;;;;;;;;;5062793;28;20083;-77
2022/03/05 14:29:50;;;;;;;18.98;7.50;;;;;;;;;;5076075;27;20052;-77
2022/03/05 14:32:16;;;;;;;15.45;7.25;;;;;;;;;;5097318;27;20040;-76
2022/03/05 14:34:42;;;;;;;17.33;9.05;;;;;;;;;;5090320;27;20040;-76